createdAt,value
2022-09-11T00:00:59.932Z,13.31
2022-09-11T00:03:27.964Z,13.27
2022-09-11T00:05:54.312Z,13.34
2022-09-11T00:08:21.724Z,13.42
2022-09-11T00:10:48.851Z,13.40
2022-09-11T00:13:21.073Z,13.41
2022-09-11T00:15:50.276Z,13.32
2022-09-11T00:18:21.492Z,13.42
2022-09-11T00:20:53.104Z,13.43
2022-09-11T00:23:20.863Z,13.38
2022-09-11T00:25:48.298Z,13.34
2022-09-11T00:28:17.133Z,13.24
2022-09-11T00:30:46.799Z,13.30
2022-09-11T00:33:15.470Z,13.33
2022-09-11T00:35:42.680Z,13.29
2022-09-11T00:38:09.161Z,13.38
2022-09-11T00:40:48.368Z,13.46
2022-09-11T00:43:16.490Z,13.48
2022-09-11T00:45:44.558Z,13.50
2022-09-11T00:48:14.959Z,13.52
2022-09-11T00:50:43.587Z,13.64
2022-09-11T00:53:13.604Z,13.60
2022-09-11T00:55:47.603Z,13.58
2022-09-11T00:58:18.665Z,13.62
2022-09-11T01:00:45.723Z,13.65
2022-09-11T01:03:12.461Z,13.75
2022-09-11T01:05:41.233Z,13.79
2022-09-11T01:08:08.040Z,13.85
2022-09-11T01:10:54.826Z,13.72
2022-09-11T01:13:30.210Z,13.71
2022-09-11T01:16:42.841Z,13.79
2022-09-11T01:19:43.533Z,13.75
2022-09-11T01:22:45.907Z,13.73
2022-09-11T01:25:27.295Z,13.68
2022-09-11T01:27:56.646Z,13.58
2022-09-11T01:30:40.750Z,13.59
2022-09-11T01:33:28.171Z,13.45
2022-09-11T01:36:05.968Z,13.56
2022-09-11T01:38:54.532Z,13.60
2022-09-11T01:41:31.713Z,13.63
2022-09-11T01:44:07.083Z,13.70
2022-09-11T01:46:40.892Z,13.65
2022-09-11T01:49:23.068Z,13.70
2022-09-11T01:51:55.831Z,13.73
2022-09-11T01:54:28.440Z,13.75
2022-09-11T01:57:02.323Z,13.82
2022-09-11T01:59:39.113Z,13.85
2022-09-11T02:02:09.359Z,13.70
2022-09-11T02:04:41.206Z,13.71
2022-09-11T02:07:15.980Z,13.76
2022-09-11T02:09:51.142Z,13.79
2022-09-11T02:12:20.805Z,13.67
2022-09-11T02:14:50.282Z,13.57
2022-09-11T02:17:32.305Z,13.68
2022-09-11T02:20:00.555Z,13.69
2022-09-11T02:22:27.432Z,13.67
2022-09-11T02:24:54.937Z,13.74
2022-09-11T02:27:25.682Z,13.68
2022-09-11T02:29:53.764Z,13.75
2022-09-11T02:32:22.089Z,13.61
2022-09-11T02:34:50.250Z,13.56
2022-09-11T02:38:01.879Z,13.55
2022-09-11T02:40:43.892Z,13.51
2022-09-11T02:43:26.143Z,13.53
2022-09-11T02:46:14.057Z,13.51
2022-09-11T02:49:00.081Z,13.49
2022-09-11T02:51:32.940Z,13.42
2022-09-11T02:54:41.132Z,13.43
2022-09-11T02:57:20.471Z,13.54
2022-09-11T03:00:08.614Z,13.43
2022-09-11T03:02:39.460Z,13.31
2022-09-11T03:05:06.980Z,13.28
2022-09-11T03:07:34.093Z,13.40
2022-09-11T03:10:00.444Z,13.35
2022-09-11T03:12:29.778Z,13.27
2022-09-11T03:14:57.373Z,13.36
2022-09-11T03:17:25.214Z,13.35
2022-09-11T03:19:51.602Z,13.40
2022-09-11T03:22:17.872Z,13.38
2022-09-11T03:24:44.963Z,13.42
2022-09-11T03:27:11.283Z,13.42
2022-09-11T03:29:37.684Z,13.36
2022-09-11T03:32:04.426Z,13.22
2022-09-11T03:34:31.628Z,13.34
2022-09-11T03:36:57.942Z,13.29
2022-09-11T03:39:24.383Z,13.20
2022-09-11T03:41:51.330Z,13.25
2022-09-11T03:44:17.658Z,13.23
2022-09-11T03:46:43.949Z,13.18
2022-09-11T03:49:10.358Z,13.23
2022-09-11T03:51:37.796Z,13.22
2022-09-11T03:54:04.298Z,13.30
2022-09-11T03:56:30.623Z,13.36
2022-09-11T03:58:59.963Z,13.33
2022-09-11T04:01:26.480Z,13.36
2022-09-11T04:03:53.140Z,13.42
2022-09-11T04:06:20.232Z,13.27
2022-09-11T04:08:46.579Z,13.34
2022-09-11T04:11:14.057Z,13.30
2022-09-11T04:13:42.053Z,13.34
2022-09-11T04:16:12.594Z,13.30
2022-09-11T04:18:40.128Z,13.19
2022-09-11T04:21:09.205Z,13.06
2022-09-11T04:23:35.647Z,13.06
2022-09-11T04:26:02.679Z,12.95
2022-09-11T04:28:30.627Z,13.10
2022-09-11T04:31:02.830Z,13.12
2022-09-11T04:33:29.267Z,13.19
2022-09-11T04:35:55.637Z,13.23
2022-09-11T04:38:23.822Z,13.20
2022-09-11T04:40:50.224Z,13.22
2022-09-11T04:43:17.665Z,13.35
2022-09-11T04:45:44.062Z,13.33
2022-09-11T04:48:10.578Z,13.32
2022-09-11T04:50:36.871Z,13.38
2022-09-11T04:53:03.990Z,13.38
2022-09-11T04:55:30.265Z,13.50
2022-09-11T04:57:56.954Z,13.59
2022-09-11T05:00:24.913Z,13.63
2022-09-11T05:02:51.214Z,13.50
2022-09-11T05:05:17.796Z,13.54
2022-09-11T05:07:44.130Z,13.39
2022-09-11T05:10:10.936Z,13.50
2022-09-11T05:12:37.329Z,13.64
2022-09-11T05:15:04.162Z,13.62
2022-09-11T05:17:30.440Z,13.57
2022-09-11T05:19:56.853Z,13.53
2022-09-11T05:22:23.152Z,13.60
2022-09-11T05:24:49.437Z,13.70
2022-09-11T05:27:15.739Z,13.75
2022-09-11T05:29:42.015Z,13.85
2022-09-11T05:32:08.322Z,13.84
2022-09-11T05:34:34.630Z,13.85
2022-09-11T05:37:02.143Z,13.92
2022-09-11T05:39:28.649Z,13.93
2022-09-11T05:41:57.618Z,14.01
2022-09-11T05:44:23.992Z,13.99
2022-09-11T05:46:50.654Z,14.05
2022-09-11T05:49:17.412Z,14.12
2022-09-11T05:51:43.755Z,14.15
2022-09-11T05:54:10.107Z,14.18
2022-09-11T05:56:36.614Z,14.16
2022-09-11T05:59:03.158Z,14.18
2022-09-11T06:01:30.880Z,14.20
2022-09-11T06:03:57.845Z,14.24
2022-09-11T06:06:24.637Z,14.16
2022-09-11T06:08:52.717Z,14.08
2022-09-11T06:11:20.738Z,13.97
2022-09-11T06:13:47.700Z,14.02
2022-09-11T06:16:19.566Z,14.02
2022-09-11T06:18:48.938Z,14.01
2022-09-11T06:21:19.856Z,13.89
2022-09-11T06:23:47.790Z,14.02
2022-09-11T06:26:16.155Z,13.92
2022-09-11T06:28:42.572Z,13.77
2022-09-11T06:31:16.241Z,13.91
2022-09-11T06:33:43.122Z,13.97
2022-09-11T06:36:15.110Z,14.06
2022-09-11T06:38:41.639Z,13.94
2022-09-11T06:41:11.737Z,14.04
2022-09-11T06:43:38.530Z,14.10
2022-09-11T06:46:16.239Z,14.06
2022-09-11T06:48:44.665Z,14.12
2022-09-11T06:51:15.976Z,14.18
2022-09-11T06:53:43.638Z,14.06
2022-09-11T06:56:12.929Z,14.14
2022-09-11T06:58:39.968Z,14.11
2022-09-11T07:01:11.099Z,14.14
2022-09-11T07:03:37.484Z,14.12
2022-09-11T07:06:05.760Z,14.16
2022-09-11T07:08:32.097Z,14.13
2022-09-11T07:11:05.610Z,14.00
2022-09-11T07:13:37.206Z,14.05
2022-09-11T07:16:07.595Z,14.12
2022-09-11T07:18:39.901Z,14.26
2022-09-11T07:21:08.300Z,14.19
2022-09-11T07:23:35.254Z,14.48
2022-09-11T07:26:03.778Z,14.59
2022-09-11T07:28:30.098Z,14.46
2022-09-11T07:31:10.617Z,14.42
2022-09-11T07:33:48.652Z,14.35
2022-09-11T07:36:17.616Z,14.25
2022-09-11T07:38:46.905Z,14.48
2022-09-11T07:41:15.096Z,14.32
2022-09-11T07:43:42.097Z,14.26
2022-09-11T07:46:10.192Z,14.09
2022-09-11T07:48:36.710Z,14.10
2022-09-11T07:51:05.334Z,14.13
2022-09-11T07:53:34.400Z,14.11
2022-09-11T07:56:05.796Z,14.26
2022-09-11T07:58:38.019Z,14.16
2022-09-11T08:01:05.827Z,14.10
2022-09-11T08:03:34.182Z,13.88
2022-09-11T08:06:02.039Z,14.05
2022-09-11T08:08:29.465Z,14.08
2022-09-11T08:10:57.123Z,14.14
2022-09-11T08:13:24.996Z,14.14
2022-09-11T08:15:51.368Z,14.05
2022-09-11T08:18:17.671Z,13.99
2022-09-11T08:20:44.472Z,14.01
2022-09-11T08:23:12.352Z,14.14
2022-09-11T08:25:38.851Z,14.12
2022-09-11T08:28:05.875Z,14.10
2022-09-11T08:30:33.341Z,14.34
2022-09-11T08:33:00.434Z,14.33
2022-09-11T08:35:27.068Z,14.31
2022-09-11T08:37:55.405Z,14.40
2022-09-11T08:40:22.144Z,14.48
2022-09-11T08:42:48.654Z,14.73
2022-09-11T08:45:21.462Z,14.92
2022-09-11T08:47:55.708Z,14.79
2022-09-11T08:50:29.671Z,14.60
2022-09-11T08:52:56.480Z,14.63
2022-09-11T08:55:32.598Z,14.80
2022-09-11T08:58:07.607Z,14.93
2022-09-11T09:01:16.144Z,14.95
2022-09-11T09:04:17.882Z,14.94
2022-09-11T09:07:08.215Z,15.02
2022-09-11T09:09:46.331Z,15.20
2022-09-11T09:12:29.757Z,15.48
2022-09-11T09:15:25.203Z,15.79
2022-09-11T09:18:37.159Z,15.86
2022-09-11T09:21:15.804Z,15.93
2022-09-11T09:23:49.635Z,16.12
2022-09-11T09:26:18.713Z,16.53
2022-09-11T09:28:50.744Z,16.32
2022-09-11T09:31:22.585Z,15.90
2022-09-11T09:34:02.153Z,16.15
2022-09-11T09:36:47.782Z,16.45
2022-09-11T09:39:16.199Z,16.60
2022-09-11T09:42:20.736Z,16.63
2022-09-11T09:45:11.873Z,16.71
2022-09-11T09:47:44.387Z,16.80
2022-09-11T09:50:31.988Z,17.19
2022-09-11T09:53:35.935Z,16.76
2022-09-11T09:56:05.146Z,16.71
2022-09-11T09:58:43.074Z,16.61
2022-09-11T10:01:45.500Z,16.71
2022-09-11T10:04:17.721Z,16.62
2022-09-11T10:06:50.277Z,16.58
2022-09-11T10:09:19.328Z,16.65
2022-09-11T10:11:50.446Z,16.91
2022-09-11T10:14:49.314Z,17.27
2022-09-11T10:17:20.054Z,17.27
2022-09-11T10:19:46.557Z,17.04
2022-09-11T10:22:28.260Z,16.98
2022-09-11T10:25:01.727Z,17.07
2022-09-11T10:27:30.222Z,16.80
2022-09-11T10:29:58.846Z,16.81
2022-09-11T10:32:26.270Z,16.84
2022-09-11T10:34:53.290Z,16.79
2022-09-11T10:37:31.096Z,16.59
2022-09-11T10:40:22.627Z,16.44
2022-09-11T10:42:51.326Z,16.46
2022-09-11T10:45:21.636Z,16.67
2022-09-11T10:47:48.428Z,16.98
2022-09-11T10:50:17.775Z,17.03
2022-09-11T10:53:00.895Z,17.17
2022-09-11T10:55:34.039Z,17.23
2022-09-11T10:58:16.076Z,17.18
2022-09-11T11:00:42.476Z,17.05
2022-09-11T11:03:17.474Z,17.12
2022-09-11T11:05:47.774Z,17.15
2022-09-11T11:08:21.087Z,17.31
2022-09-11T11:11:05.885Z,17.16
2022-09-11T11:13:56.558Z,17.20
2022-09-11T11:16:46.920Z,17.53
2022-09-11T11:19:34.804Z,17.85
2022-09-11T11:22:38.128Z,17.85
2022-09-11T11:25:27.256Z,17.66
2022-09-11T11:28:11.877Z,17.76
2022-09-11T11:31:15.691Z,17.82
2022-09-11T11:33:51.712Z,17.84
2022-09-11T11:37:03.379Z,17.57
2022-09-11T11:39:44.752Z,17.62
2022-09-11T11:42:23.591Z,17.54
2022-09-11T11:44:58.624Z,17.55
2022-09-11T11:47:32.531Z,17.67
2022-09-11T11:50:22.061Z,17.68
2022-09-11T11:53:12.315Z,17.53
2022-09-11T11:55:45.480Z,17.39
2022-09-11T11:58:29.170Z,17.41
2022-09-11T12:01:01.845Z,17.46
2022-09-11T12:03:36.347Z,17.54
2022-09-11T12:06:05.368Z,17.48
2022-09-11T12:08:31.943Z,17.38
2022-09-11T12:11:03.888Z,17.25
2022-09-11T12:13:34.222Z,17.41
2022-09-11T12:16:15.029Z,17.35
2022-09-11T12:19:13.894Z,17.38
2022-09-11T12:21:42.383Z,17.12
2022-09-11T12:24:08.641Z,17.14
2022-09-11T12:26:35.113Z,17.18
2022-09-11T12:29:11.665Z,17.36
2022-09-11T12:31:50.187Z,17.64
2022-09-11T12:34:24.835Z,17.82
2022-09-11T12:37:11.119Z,17.81
2022-09-11T12:39:40.001Z,17.79
2022-09-11T12:42:25.273Z,17.78
2022-09-11T12:44:51.565Z,17.72
2022-09-11T12:47:35.020Z,17.79
2022-09-11T12:50:04.436Z,17.92
2022-09-11T12:53:02.045Z,18.02
2022-09-11T12:55:43.192Z,17.79
2022-09-11T12:58:21.502Z,17.57
2022-09-11T13:00:50.654Z,17.51
2022-09-11T13:03:24.487Z,17.55
2022-09-11T13:06:02.069Z,17.73
2022-09-11T13:08:33.234Z,17.83
2022-09-11T13:11:36.566Z,17.88
2022-09-11T13:14:05.095Z,17.98
2022-09-11T13:16:34.773Z,17.80
2022-09-11T13:19:13.577Z,17.91
2022-09-11T13:21:49.308Z,17.98
2022-09-11T13:24:30.117Z,18.05
2022-09-11T13:27:17.491Z,18.34
2022-09-11T13:29:47.425Z,18.28
2022-09-11T13:32:15.606Z,18.12
2022-09-11T13:34:48.311Z,18.06
2022-09-11T13:37:26.409Z,18.09
2022-09-11T13:39:53.135Z,18.12
2022-09-11T13:42:23.122Z,18.12
2022-09-11T13:44:52.032Z,18.25
2022-09-11T13:47:21.286Z,18.16
2022-09-11T13:49:51.007Z,18.33
2022-09-11T13:52:21.867Z,18.20
2022-09-11T13:54:54.124Z,18.16
2022-09-11T13:57:28.139Z,17.99
2022-09-11T13:59:59.071Z,18.08
2022-09-11T14:02:34.521Z,17.88
2022-09-11T14:05:22.064Z,17.85
2022-09-11T14:08:10.104Z,17.97
2022-09-11T14:10:42.395Z,18.27
2022-09-11T14:13:30.057Z,18.25
2022-09-11T14:16:01.704Z,18.39
2022-09-11T14:18:37.165Z,18.59
2022-09-11T14:21:13.355Z,18.40
2022-09-11T14:23:43.394Z,18.57
2022-09-11T14:26:24.792Z,18.53
2022-09-11T14:28:58.204Z,18.60
2022-09-11T14:31:35.361Z,18.75
2022-09-11T14:34:10.972Z,18.84
2022-09-11T14:36:41.580Z,18.81
2022-09-11T14:39:29.453Z,18.63
2022-09-11T14:41:57.943Z,18.54
2022-09-11T14:44:26.143Z,18.35
2022-09-11T14:46:53.361Z,18.42
2022-09-11T14:49:19.660Z,18.55
2022-09-11T14:52:00.398Z,18.44
2022-09-11T14:54:30.958Z,18.35
2022-09-11T14:57:00.811Z,18.36
2022-09-11T14:59:29.031Z,18.46
2022-09-11T15:01:58.340Z,18.56
2022-09-11T15:04:24.728Z,18.49
2022-09-11T15:06:55.530Z,18.58
2022-09-11T15:09:25.185Z,18.53
2022-09-11T15:11:52.245Z,18.40
2022-09-11T15:14:32.570Z,18.32
2022-09-11T15:17:13.008Z,18.41
2022-09-11T15:19:39.386Z,18.37
2022-09-11T15:22:07.368Z,18.31
2022-09-11T15:24:34.556Z,18.18
2022-09-11T15:27:01.151Z,18.20
2022-09-11T15:29:31.559Z,18.20
2022-09-11T15:31:58.511Z,18.31
2022-09-11T15:34:27.132Z,18.25
2022-09-11T15:36:53.626Z,18.09
2022-09-11T15:39:20.913Z,18.08
2022-09-11T15:41:47.713Z,18.10
2022-09-11T15:44:20.286Z,18.04
2022-09-11T15:46:47.587Z,18.16
2022-09-11T15:49:13.904Z,18.24
2022-09-11T15:51:40.331Z,18.20
2022-09-11T15:54:06.701Z,18.15
2022-09-11T15:56:35.322Z,18.13
2022-09-11T15:59:02.083Z,17.93
2022-09-11T16:01:32.314Z,18.01
2022-09-11T16:04:07.318Z,17.98
2022-09-11T16:06:39.363Z,17.97
2022-09-11T16:09:10.555Z,18.03
2022-09-11T16:11:39.743Z,18.02
2022-09-11T16:14:06.903Z,18.03
2022-09-11T16:16:33.708Z,18.04
2022-09-11T16:19:01.575Z,18.11
2022-09-11T16:21:28.536Z,18.02
2022-09-11T16:24:00.664Z,18.05
2022-09-11T16:26:28.899Z,18.05
2022-09-11T16:28:55.238Z,18.04
2022-09-11T16:31:21.659Z,18.17
2022-09-11T16:33:48.550Z,18.19
2022-09-11T16:36:17.978Z,18.18
2022-09-11T16:38:45.197Z,18.01
2022-09-11T16:41:18.718Z,17.96
2022-09-11T16:43:47.733Z,17.93
2022-09-11T16:46:19.925Z,17.93
2022-09-11T16:48:51.854Z,17.90
2022-09-11T16:51:20.875Z,17.69
2022-09-11T16:53:47.618Z,17.58
2022-09-11T16:56:16.693Z,17.64
2022-09-11T16:58:43.780Z,17.70
2022-09-11T17:01:15.803Z,17.73
2022-09-11T17:03:44.218Z,17.71
2022-09-11T17:06:11.199Z,17.72
2022-09-11T17:08:39.062Z,17.69
2022-09-11T17:11:09.547Z,17.64
2022-09-11T17:13:36.372Z,17.52
2022-09-11T17:16:05.037Z,17.38
2022-09-11T17:18:31.980Z,17.26
2022-09-11T17:21:02.415Z,17.22
2022-09-11T17:23:28.734Z,17.21
2022-09-11T17:25:55.016Z,17.13
2022-09-11T17:28:21.560Z,17.01
2022-09-11T17:30:48.023Z,17.00
2022-09-11T17:33:15.509Z,17.03
2022-09-11T17:35:43.724Z,17.01
2022-09-11T17:38:11.056Z,17.00
2022-09-11T17:40:38.832Z,16.88
2022-09-11T17:43:05.113Z,16.80
2022-09-11T17:45:31.572Z,16.72
2022-09-11T17:47:57.993Z,16.69
2022-09-11T17:50:24.385Z,16.57
2022-09-11T17:52:50.677Z,16.63
2022-09-11T17:55:17.101Z,16.61
2022-09-11T17:57:45.884Z,16.53
2022-09-11T18:00:13.089Z,16.54
2022-09-11T18:02:39.983Z,16.52
2022-09-11T18:05:07.026Z,16.38
2022-09-11T18:07:33.377Z,16.33
2022-09-11T18:09:59.844Z,16.26
2022-09-11T18:12:28.349Z,16.08
2022-09-11T18:14:56.809Z,16.02
2022-09-11T18:17:23.094Z,15.93
2022-09-11T18:19:50.043Z,15.88
2022-09-11T18:22:19.851Z,15.89
2022-09-11T18:24:46.319Z,15.85
2022-09-11T18:27:12.628Z,15.87
2022-09-11T18:29:40.501Z,15.80
2022-09-11T18:32:06.867Z,15.66
2022-09-11T18:34:33.290Z,15.60
2022-09-11T18:37:00.446Z,15.57
2022-09-11T18:39:26.985Z,15.46
2022-09-11T18:41:53.387Z,15.41
2022-09-11T18:44:22.237Z,15.31
2022-09-11T18:46:51.742Z,15.33
2022-09-11T18:49:18.430Z,15.23
2022-09-11T18:51:44.794Z,15.17
2022-09-11T18:54:16.190Z,15.04
2022-09-11T18:56:43.518Z,14.85
2022-09-11T18:59:10.779Z,14.95
2022-09-11T19:01:37.286Z,14.95
2022-09-11T19:04:08.505Z,14.96
2022-09-11T19:06:35.030Z,14.82
2022-09-11T19:09:02.644Z,14.61
2022-09-11T19:11:29.908Z,14.48
2022-09-11T19:14:02.352Z,14.48
2022-09-11T19:16:29.200Z,14.59
2022-09-11T19:18:55.554Z,14.57
2022-09-11T19:21:23.814Z,14.56
2022-09-11T19:23:55.304Z,14.53
2022-09-11T19:26:27.107Z,14.40
2022-09-11T19:28:55.767Z,14.30
2022-09-11T19:31:28.810Z,14.27
2022-09-11T19:33:56.614Z,14.26
2022-09-11T19:36:27.236Z,14.29
2022-09-11T19:39:00.598Z,14.39
2022-09-11T19:41:32.801Z,14.46
2022-09-11T19:44:01.488Z,14.43
2022-09-11T19:46:29.502Z,14.50
2022-09-11T19:48:58.024Z,14.49
2022-09-11T19:51:27.510Z,14.46
2022-09-11T19:54:00.378Z,14.46
2022-09-11T19:56:27.648Z,14.46
2022-09-11T19:58:54.622Z,14.35
2022-09-11T20:01:22.892Z,14.33
2022-09-11T20:03:50.984Z,14.33
2022-09-11T20:06:18.984Z,14.17
2022-09-11T20:08:47.022Z,14.23
2022-09-11T20:11:16.771Z,14.14
2022-09-11T20:13:43.288Z,14.16
2022-09-11T20:16:19.910Z,14.11
2022-09-11T20:18:46.306Z,14.10
2022-09-11T20:21:18.311Z,13.98
2022-09-11T20:23:45.282Z,13.83
2022-09-11T20:26:16.951Z,13.73
2022-09-11T20:28:45.105Z,13.67
2022-09-11T20:31:22.953Z,13.64
2022-09-11T20:33:49.503Z,13.67
2022-09-11T20:36:17.217Z,13.68
2022-09-11T20:38:43.861Z,13.62
2022-09-11T20:41:14.218Z,13.53
2022-09-11T20:43:41.447Z,13.45
2022-09-11T20:46:09.039Z,13.48
2022-09-11T20:48:35.436Z,13.50
2022-09-11T20:51:07.098Z,13.42
2022-09-11T20:53:33.603Z,13.40
2022-09-11T20:56:05.840Z,13.25
2022-09-11T20:58:32.648Z,13.17
2022-09-11T21:01:00.694Z,13.08
2022-09-11T21:03:27.950Z,13.04
2022-09-11T21:05:55.443Z,13.05
2022-09-11T21:08:22.196Z,12.90
2022-09-11T21:10:49.536Z,12.70
2022-09-11T21:13:16.568Z,12.88
2022-09-11T21:15:47.715Z,12.87
2022-09-11T21:18:15.016Z,12.72
2022-09-11T21:20:41.428Z,12.72
2022-09-11T21:23:07.789Z,12.67
2022-09-11T21:25:40.306Z,12.54
2022-09-11T21:28:06.687Z,12.55
2022-09-11T21:30:33.178Z,12.58
2022-09-11T21:32:59.451Z,12.66
2022-09-11T21:35:25.802Z,12.65
2022-09-11T21:37:52.095Z,12.50
2022-09-11T21:40:18.376Z,12.48
2022-09-11T21:42:44.732Z,12.28
2022-09-11T21:45:11.000Z,12.25
2022-09-11T21:47:37.341Z,12.28
2022-09-11T21:50:06.926Z,12.20
2022-09-11T21:52:33.705Z,12.28
2022-09-11T21:55:00.349Z,12.09
2022-09-11T21:57:28.744Z,12.00
2022-09-11T21:59:58.900Z,12.08
2022-09-11T22:02:26.557Z,12.12
2022-09-11T22:04:53.257Z,12.13
2022-09-11T22:07:20.183Z,12.19
2022-09-11T22:09:50.302Z,12.16
2022-09-11T22:12:16.845Z,11.97
2022-09-11T22:14:46.629Z,12.00
2022-09-11T22:17:12.938Z,12.02
2022-09-11T22:19:39.221Z,12.02
2022-09-11T22:22:06.638Z,11.89
2022-09-11T22:24:33.002Z,11.89
2022-09-11T22:26:59.341Z,11.75
2022-09-11T22:29:25.714Z,11.69
2022-09-11T22:31:52.054Z,11.57
2022-09-11T22:34:18.393Z,11.62
2022-09-11T22:36:44.681Z,11.65
2022-09-11T22:39:10.961Z,11.72
2022-09-11T22:41:37.260Z,11.70
2022-09-11T22:44:03.881Z,11.72
2022-09-11T22:46:30.176Z,11.73
2022-09-11T22:48:56.496Z,11.76
2022-09-11T22:51:22.785Z,11.71
2022-09-11T22:53:49.148Z,11.64
2022-09-11T22:56:15.548Z,11.71
2022-09-11T22:58:42.112Z,11.71
2022-09-11T23:01:10.523Z,11.72
2022-09-11T23:03:37.192Z,11.69
2022-09-11T23:06:22.706Z,11.49
2022-09-11T23:08:49.330Z,11.41
2022-09-11T23:11:19.628Z,11.45
2022-09-11T23:13:49.770Z,11.43
2022-09-11T23:16:22.743Z,11.39
2022-09-11T23:18:55.897Z,11.25
2022-09-11T23:21:22.410Z,11.22
2022-09-11T23:23:54.687Z,11.15
2022-09-11T23:26:23.034Z,11.01
2022-09-11T23:28:49.409Z,11.03
2022-09-11T23:31:28.567Z,11.02
2022-09-11T23:33:57.745Z,10.88
2022-09-11T23:36:24.616Z,10.70
2022-09-11T23:38:51.132Z,10.86
2022-09-11T23:41:18.171Z,10.88
2022-09-11T23:43:44.874Z,10.91
2022-09-11T23:46:11.711Z,10.91
2022-09-11T23:48:38.464Z,10.84
2022-09-11T23:51:05.441Z,10.84
2022-09-11T23:53:32.071Z,10.95
2022-09-11T23:55:58.812Z,10.87
2022-09-11T23:58:25.184Z,10.86
